sensor_id;sensor_type;location;lat;lon;timestamp;pressure;altitude;pressure_sealevel;temperature;humidity
69784;BME280;57054;51.978;4.498;2023-03-26T00:00:42;100689.38;;;8.67;96.51
69784;BME280;57054;51.978;4.498;2023-03-26T00:03:12;100689.31;;;8.69;96.30
69784;BME280;57054;51.978;4.498;2023-03-26T00:05:38;100693.66;;;8.70;96.46
69784;BME280;57054;51.978;4.498;2023-03-26T00:08:05;100696.19;;;8.71;96.39
69784;BME280;57054;51.978;4.498;2023-03-26T00:10:33;100684.94;;;8.69;96.62
69784;BME280;57054;51.978;4.498;2023-03-26T00:12:58;100684.09;;;8.69;96.64
69784;BME280;57054;51.978;4.498;2023-03-26T00:15:24;100679.72;;;8.69;96.70
69784;BME280;57054;51.978;4.498;2023-03-26T00:17:49;100682.38;;;8.68;96.79
69784;BME280;57054;51.978;4.498;2023-03-26T00:20:14;100671.88;;;8.69;97.06
69784;BME280;57054;51.978;4.498;2023-03-26T00:22:40;100671.00;;;8.70;96.75
69784;BME280;57054;51.978;4.498;2023-03-26T00:25:06;100657.94;;;8.70;96.96
69784;BME280;57054;51.978;4.498;2023-03-26T00:27:32;100665.72;;;8.72;96.91
69784;BME280;57054;51.978;4.498;2023-03-26T00:29:59;100657.88;;;8.72;97.13
69784;BME280;57054;51.978;4.498;2023-03-26T00:32:27;100663.94;;;8.72;97.27
69784;BME280;57054;51.978;4.498;2023-03-26T00:34:53;100656.06;;;8.74;96.99
69784;BME280;57054;51.978;4.498;2023-03-26T00:37:20;100643.91;;;8.73;97.30
69784;BME280;57054;51.978;4.498;2023-03-26T00:39:51;100643.91;;;8.73;97.14
69784;BME280;57054;51.978;4.498;2023-03-26T00:42:17;100638.69;;;8.73;97.25
69784;BME280;57054;51.978;4.498;2023-03-26T00:44:42;100640.44;;;8.72;97.04
69784;BME280;57054;51.978;4.498;2023-03-26T00:47:08;100637.84;;;8.72;97.51
69784;BME280;57054;51.978;4.498;2023-03-26T00:49:33;100630.84;;;8.73;97.30
69784;BME280;57054;51.978;4.498;2023-03-26T00:51:58;100632.56;;;8.74;97.42
69784;BME280;57054;51.978;4.498;2023-03-26T00:54:24;100621.19;;;8.75;97.49
69784;BME280;57054;51.978;4.498;2023-03-26T00:56:50;100626.44;;;8.75;97.52
69784;BME280;57054;51.978;4.498;2023-03-26T00:59:15;100610.75;;;8.75;97.69
69784;BME280;57054;51.978;4.498;2023-03-26T01:08:00;100617.75;;;8.74;97.86
69784;BME280;57054;51.978;4.498;2023-03-26T01:10:26;100611.69;;;8.74;97.46
69784;BME280;57054;51.978;4.498;2023-03-26T01:12:52;100613.44;;;8.73;97.69
69784;BME280;57054;51.978;4.498;2023-03-26T01:15:17;100603.06;;;8.72;97.38
69784;BME280;57054;51.978;4.498;2023-03-26T01:17:43;100604.75;;;8.73;97.37
69784;BME280;57054;51.978;4.498;2023-03-26T01:20:12;100597.88;;;8.70;97.22
69784;BME280;57054;51.978;4.498;2023-03-26T01:22:47;100599.56;;;8.71;97.24
69784;BME280;57054;51.978;4.498;2023-03-26T01:25:13;100592.66;;;8.70;97.12
69784;BME280;57054;51.978;4.498;2023-03-26T01:27:59;100588.34;;;8.69;97.05
69784;BME280;57054;51.978;4.498;2023-03-26T01:35:59;100579.78;;;8.65;96.68
69784;BME280;57054;51.978;4.498;2023-03-26T01:41:03;100564.16;;;8.64;96.54
69784;BME280;57054;51.978;4.498;2023-03-26T01:43:43;100562.47;;;8.63;96.68
69784;BME280;57054;51.978;4.498;2023-03-26T01:46:12;100556.47;;;8.61;96.62
69784;BME280;57054;51.978;4.498;2023-03-26T01:48:42;100553.91;;;8.59;96.31
69784;BME280;57054;51.978;4.498;2023-03-26T01:51:10;100554.75;;;8.60;96.32
69784;BME280;57054;51.978;4.498;2023-03-26T01:53:41;100548.72;;;8.58;96.36
69784;BME280;57054;51.978;4.498;2023-03-26T02:01:32;100543.63;;;8.55;96.18
69784;BME280;57054;51.978;4.498;2023-03-26T02:04:03;100541.09;;;8.53;96.25
69784;BME280;57054;51.978;4.498;2023-03-26T02:06:43;100537.59;;;8.53;96.13
69784;BME280;57054;51.978;4.498;2023-03-26T02:09:15;100536.75;;;8.52;96.41
69784;BME280;57054;51.978;4.498;2023-03-26T02:11:44;100533.31;;;8.52;96.31
69784;BME280;57054;51.978;4.498;2023-03-26T02:14:12;100532.44;;;8.51;96.42
69784;BME280;57054;51.978;4.498;2023-03-26T02:16:37;100524.59;;;8.51;96.55
69784;BME280;57054;51.978;4.498;2023-03-26T02:19:03;100529.91;;;8.50;96.27
69784;BME280;57054;51.978;4.498;2023-03-26T02:21:28;100517.69;;;8.50;96.46
69784;BME280;57054;51.978;4.498;2023-03-26T02:23:58;100516.00;;;8.49;96.70
69784;BME280;57054;51.978;4.498;2023-03-26T02:26:28;100510.81;;;8.48;97.15
69784;BME280;57054;51.978;4.498;2023-03-26T02:28:53;100510.81;;;8.48;97.14
69784;BME280;57054;51.978;4.498;2023-03-26T02:31:19;100511.69;;;8.48;97.24
69784;BME280;57054;51.978;4.498;2023-03-26T02:33:46;100508.22;;;8.48;97.53
69784;BME280;57054;51.978;4.498;2023-03-26T02:36:12;100503.81;;;8.50;97.52
69784;BME280;57054;51.978;4.498;2023-03-26T02:38:38;100501.19;;;8.50;97.51
69784;BME280;57054;51.978;4.498;2023-03-26T02:41:04;100492.44;;;8.51;97.67
69784;BME280;57054;51.978;4.498;2023-03-26T02:43:30;100493.38;;;8.50;97.28
69784;BME280;57054;51.978;4.498;2023-03-26T02:45:55;100491.59;;;8.50;97.57
69784;BME280;57054;51.978;4.498;2023-03-26T02:48:21;100490.69;;;8.51;97.59
69784;BME280;57054;51.978;4.498;2023-03-26T02:50:47;100492.44;;;8.51;97.65
69784;BME280;57054;51.978;4.498;2023-03-26T02:53:17;100485.47;;;8.51;97.53
69784;BME280;57054;51.978;4.498;2023-03-26T02:55:42;100480.25;;;8.51;97.56
69784;BME280;57054;51.978;4.498;2023-03-26T02:58:07;100478.50;;;8.52;97.64
69784;BME280;57054;51.978;4.498;2023-03-26T03:00:33;100480.19;;;8.53;97.43
69784;BME280;57054;51.978;4.498;2023-03-26T03:03:00;100485.47;;;8.51;97.36
69784;BME280;57054;51.978;4.498;2023-03-26T03:05:29;100475.03;;;8.51;97.42
69784;BME280;57054;51.978;4.498;2023-03-26T03:07:56;100475.88;;;8.52;97.41
69784;BME280;57054;51.978;4.498;2023-03-26T03:10:24;100469.75;;;8.53;97.30
69784;BME280;57054;51.978;4.498;2023-03-26T03:12:50;100468.91;;;8.52;97.58
69784;BME280;57054;51.978;4.498;2023-03-26T03:15:15;100465.44;;;8.52;97.48
69784;BME280;57054;51.978;4.498;2023-03-26T03:17:41;100468.06;;;8.52;97.46
69784;BME280;57054;51.978;4.498;2023-03-26T03:20:07;100454.13;;;8.51;97.39
69784;BME280;57054;51.978;4.498;2023-03-26T03:22:36;100451.53;;;8.51;97.22
69784;BME280;57054;51.978;4.498;2023-03-26T03:25:03;100451.53;;;8.51;97.31
69784;BME280;57054;51.978;4.498;2023-03-26T03:27:28;100451.53;;;8.51;97.26
69784;BME280;57054;51.978;4.498;2023-03-26T03:29:54;100448.91;;;8.51;97.44
69784;BME280;57054;51.978;4.498;2023-03-26T03:32:21;100450.75;;;8.49;97.30
69784;BME280;57054;51.978;4.498;2023-03-26T03:34:47;100451.63;;;8.50;97.28
69784;BME280;57054;51.978;4.498;2023-03-26T03:37:18;100447.28;;;8.49;97.42
69784;BME280;57054;51.978;4.498;2023-03-26T03:39:43;100436.84;;;8.49;97.40
69784;BME280;57054;51.978;4.498;2023-03-26T03:42:09;100429.03;;;8.49;97.18
69784;BME280;57054;51.978;4.498;2023-03-26T03:44:35;100429.03;;;8.49;97.39
69784;BME280;57054;51.978;4.498;2023-03-26T03:47:00;100425.56;;;8.48;97.06
69784;BME280;57054;51.978;4.498;2023-03-26T03:49:26;100422.09;;;8.48;97.29
69784;BME280;57054;51.978;4.498;2023-03-26T03:51:51;100421.25;;;8.47;97.18
69784;BME280;57054;51.978;4.498;2023-03-26T03:54:16;100418.63;;;8.47;97.20
69784;BME280;57054;51.978;4.498;2023-03-26T03:56:42;100419.56;;;8.46;97.01
69784;BME280;57054;51.978;4.498;2023-03-26T03:59:10;100417.00;;;8.44;97.11
69784;BME280;57054;51.978;4.498;2023-03-26T04:01:35;100410.03;;;8.45;97.01
69784;BME280;57054;51.978;4.498;2023-03-26T04:04:01;100410.03;;;8.45;97.12
69784;BME280;57054;51.978;4.498;2023-03-26T04:06:26;100410.03;;;8.45;96.99
69784;BME280;57054;51.978;4.498;2023-03-26T04:08:55;100405.69;;;8.44;96.91
69784;BME280;57054;51.978;4.498;2023-03-26T04:11:21;100398.78;;;8.43;97.07
69784;BME280;57054;51.978;4.498;2023-03-26T04:13:46;100399.63;;;8.43;97.13
69784;BME280;57054;51.978;4.498;2023-03-26T04:16:12;100387.50;;;8.42;97.09
69784;BME280;57054;51.978;4.498;2023-03-26T04:18:37;100388.34;;;8.43;97.25
69784;BME280;57054;51.978;4.498;2023-03-26T04:21:04;100390.03;;;8.44;96.79
69784;BME280;57054;51.978;4.498;2023-03-26T04:23:30;100383.13;;;8.43;97.06
69784;BME280;57054;51.978;4.498;2023-03-26T04:25:57;100377.91;;;8.43;97.12
69784;BME280;57054;51.978;4.498;2023-03-26T04:28:30;100367.47;;;8.43;96.90
69784;BME280;57054;51.978;4.498;2023-03-26T04:30:57;100367.47;;;8.43;97.06
69784;BME280;57054;51.978;4.498;2023-03-26T04:33:29;100364.03;;;8.42;96.87
69784;BME280;57054;51.978;4.498;2023-03-26T04:35:56;100355.28;;;8.43;96.82
69784;BME280;57054;51.978;4.498;2023-03-26T04:38:26;100352.72;;;8.42;97.12
69784;BME280;57054;51.978;4.498;2023-03-26T04:40:52;100352.72;;;8.42;96.91
69784;BME280;57054;51.978;4.498;2023-03-26T04:43:17;100350.09;;;8.42;96.89
69784;BME280;57054;51.978;4.498;2023-03-26T04:45:43;100344.00;;;8.43;97.06
69784;BME280;57054;51.978;4.498;2023-03-26T04:48:10;100342.28;;;8.42;96.97
69784;BME280;57054;51.978;4.498;2023-03-26T04:50:40;100337.06;;;8.42;96.93
69784;BME280;57054;51.978;4.498;2023-03-26T04:53:10;100328.34;;;8.41;97.15
69784;BME280;57054;51.978;4.498;2023-03-26T04:55:44;100324.00;;;8.42;96.97
69784;BME280;57054;51.978;4.498;2023-03-26T04:58:10;100322.31;;;8.41;97.12
69784;BME280;57054;51.978;4.498;2023-03-26T05:00:39;100322.31;;;8.41;97.05
69784;BME280;57054;51.978;4.498;2023-03-26T05:03:04;100314.53;;;8.39;97.00
69784;BME280;57054;51.978;4.498;2023-03-26T05:05:30;100311.03;;;8.40;96.95
69784;BME280;57054;51.978;4.498;2023-03-26T05:07:56;100304.09;;;8.39;97.26
69784;BME280;57054;51.978;4.498;2023-03-26T05:10:22;100298.88;;;8.39;97.20
69784;BME280;57054;51.978;4.498;2023-03-26T05:12:48;100286.72;;;8.38;97.19
69784;BME280;57054;51.978;4.498;2023-03-26T05:15:14;100282.38;;;8.39;97.29
69784;BME280;57054;51.978;4.498;2023-03-26T05:17:39;100282.44;;;8.37;97.28
69784;BME280;57054;51.978;4.498;2023-03-26T05:20:12;100284.13;;;8.38;97.21
69784;BME280;57054;51.978;4.498;2023-03-26T05:22:42;100279.03;;;8.35;97.10
69784;BME280;57054;51.978;4.498;2023-03-26T05:25:08;100275.56;;;8.35;97.08
69784;BME280;57054;51.978;4.498;2023-03-26T05:27:33;100281.72;;;8.34;97.51
69784;BME280;57054;51.978;4.498;2023-03-26T05:30:00;100277.38;;;8.33;97.41
69784;BME280;57054;51.978;4.498;2023-03-26T05:32:26;100281.78;;;8.32;97.44
69784;BME280;57054;51.978;4.498;2023-03-26T05:34:51;100274.78;;;8.33;97.44
69784;BME280;57054;51.978;4.498;2023-03-26T05:37:16;100271.34;;;8.32;97.58
69784;BME280;57054;51.978;4.498;2023-03-26T05:39:44;100270.50;;;8.32;97.47
69784;BME280;57054;51.978;4.498;2023-03-26T05:42:10;100273.09;;;8.32;97.30
69784;BME280;57054;51.978;4.498;2023-03-26T05:44:35;100270.53;;;8.30;97.38
69784;BME280;57054;51.978;4.498;2023-03-26T05:47:01;100270.53;;;8.30;97.55
69784;BME280;57054;51.978;4.498;2023-03-26T05:49:26;100267.09;;;8.30;97.58
69784;BME280;57054;51.978;4.498;2023-03-26T05:51:51;100267.09;;;8.30;97.50
69784;BME280;57054;51.978;4.498;2023-03-26T05:54:17;100265.34;;;8.30;97.42
69784;BME280;57054;51.978;4.498;2023-03-26T05:56:42;100260.09;;;8.30;97.90
69784;BME280;57054;51.978;4.498;2023-03-26T05:59:07;100265.34;;;8.30;97.55
69784;BME280;57054;51.978;4.498;2023-03-26T06:01:33;100259.28;;;8.30;97.47
69784;BME280;57054;51.978;4.498;2023-03-26T06:03:58;100257.56;;;8.29;97.49
69784;BME280;57054;51.978;4.498;2023-03-26T06:06:23;100259.31;;;8.28;97.83
69784;BME280;57054;51.978;4.498;2023-03-26T06:08:51;100260.22;;;8.27;97.73
69784;BME280;57054;51.978;4.498;2023-03-26T06:11:18;100260.28;;;8.25;97.92
69784;BME280;57054;51.978;4.498;2023-03-26T06:13:44;100248.13;;;8.26;97.86
69784;BME280;57054;51.978;4.498;2023-03-26T06:16:12;100255.94;;;8.26;97.77
69784;BME280;57054;51.978;4.498;2023-03-26T06:18:38;100247.25;;;8.25;97.94
69784;BME280;57054;51.978;4.498;2023-03-26T06:21:05;100247.25;;;8.25;97.80
69784;BME280;57054;51.978;4.498;2023-03-26T06:23:30;100239.41;;;8.25;98.02
69784;BME280;57054;51.978;4.498;2023-03-26T06:25:56;100238.50;;;8.26;97.93
69784;BME280;57054;51.978;4.498;2023-03-26T06:28:22;100242.88;;;8.26;97.80
69784;BME280;57054;51.978;4.498;2023-03-26T06:30:48;100234.19;;;8.25;97.89
69784;BME280;57054;51.978;4.498;2023-03-26T06:33:13;100241.13;;;8.26;97.95
69784;BME280;57054;51.978;4.498;2023-03-26T06:35:38;100241.13;;;8.26;97.87
69784;BME280;57054;51.978;4.498;2023-03-26T06:38:05;100246.34;;;8.26;97.70
69784;BME280;57054;51.978;4.498;2023-03-26T06:40:32;100241.13;;;8.26;97.72
69784;BME280;57054;51.978;4.498;2023-03-26T06:42:57;100239.34;;;8.27;97.94
69784;BME280;57054;51.978;4.498;2023-03-26T06:45:22;100240.28;;;8.26;97.67
69784;BME280;57054;51.978;4.498;2023-03-26T06:47:48;100241.97;;;8.27;97.72
69784;BME280;57054;51.978;4.498;2023-03-26T06:50:13;100234.13;;;8.27;97.70
69784;BME280;57054;51.978;4.498;2023-03-26T06:52:39;100234.13;;;8.27;97.80
69784;BME280;57054;51.978;4.498;2023-03-26T06:55:05;100236.75;;;8.27;97.70
69784;BME280;57054;51.978;4.498;2023-03-26T06:57:33;100236.75;;;8.27;97.83
69784;BME280;57054;51.978;4.498;2023-03-26T06:59:58;100234.97;;;8.27;97.61
69784;BME280;57054;51.978;4.498;2023-03-26T07:02:23;100237.59;;;8.27;97.92
69784;BME280;57054;51.978;4.498;2023-03-26T07:04:49;100235.91;;;8.26;97.64
69784;BME280;57054;51.978;4.498;2023-03-26T07:07:14;100240.19;;;8.27;97.90
69784;BME280;57054;51.978;4.498;2023-03-26T07:09:40;100234.13;;;8.27;97.92
69784;BME280;57054;51.978;4.498;2023-03-26T07:12:05;100230.69;;;8.26;97.77
69784;BME280;57054;51.978;4.498;2023-03-26T07:14:31;100229.84;;;8.26;97.82
69784;BME280;57054;51.978;4.498;2023-03-26T07:16:59;100235.13;;;8.24;97.96
69784;BME280;57054;51.978;4.498;2023-03-26T07:19:25;100238.56;;;8.25;98.02
69784;BME280;57054;51.978;4.498;2023-03-26T07:21:51;100235.13;;;8.24;98.17
69784;BME280;57054;51.978;4.498;2023-03-26T07:24:17;100234.19;;;8.25;98.05
69784;BME280;57054;51.978;4.498;2023-03-26T07:29:34;100238.56;;;8.25;98.12
69784;BME280;57054;51.978;4.498;2023-03-26T07:35:00;100232.56;;;8.23;98.20
69784;BME280;57054;51.978;4.498;2023-03-26T07:40:52;100234.25;;;8.24;98.37
69784;BME280;57054;51.978;4.498;2023-03-26T07:43:45;100230.81;;;8.23;98.22
69784;BME280;57054;51.978;4.498;2023-03-26T07:46:15;100228.19;;;8.23;98.33
69784;BME280;57054;51.978;4.498;2023-03-26T07:48:43;100230.81;;;8.23;98.37
69784;BME280;57054;51.978;4.498;2023-03-26T07:51:10;100227.34;;;8.23;98.29
69784;BME280;57054;51.978;4.498;2023-03-26T07:53:36;100226.44;;;8.24;98.62
69784;BME280;57054;51.978;4.498;2023-03-26T07:56:11;100228.19;;;8.23;98.44
69784;BME280;57054;51.978;4.498;2023-03-26T08:10:07;100225.53;;;8.25;98.93
69784;BME280;57054;51.978;4.498;2023-03-26T08:12:42;100222.09;;;8.24;98.74
69784;BME280;57054;51.978;4.498;2023-03-26T08:15:35;100221.16;;;8.25;98.74
69784;BME280;57054;51.978;4.498;2023-03-26T08:18:34;100221.09;;;8.27;98.81
69784;BME280;57054;51.978;4.498;2023-03-26T08:21:09;100221.94;;;8.27;98.85
69784;BME280;57054;51.978;4.498;2023-03-26T08:29:22;100237.59;;;8.27;99.32
69784;BME280;57054;51.978;4.498;2023-03-26T08:31:53;100233.25;;;8.28;99.25
69784;BME280;57054;51.978;4.498;2023-03-26T08:34:19;100231.47;;;8.29;99.76
69784;BME280;57054;51.978;4.498;2023-03-26T08:36:45;100227.09;;;8.29;99.54
69784;BME280;57054;51.978;4.498;2023-03-26T08:39:11;100229.69;;;8.29;99.88
69784;BME280;57054;51.978;4.498;2023-03-26T08:49:55;100227.88;;;8.31;100.00
69784;BME280;57054;51.978;4.498;2023-03-26T09:15:40;100227.69;;;8.36;100.00
69784;BME280;57054;51.978;4.498;2023-03-26T09:23:39;100237.28;;;8.35;100.00
69784;BME280;57054;51.978;4.498;2023-03-26T09:32:37;100238.41;;;8.30;100.00
69784;BME280;57054;51.978;4.498;2023-03-26T09:41:07;100244.56;;;8.27;100.00
69784;BME280;57054;51.978;4.498;2023-03-26T09:56:59;100258.34;;;8.31;100.00
69784;BME280;57054;51.978;4.498;2023-03-26T09:59:41;100260.16;;;8.29;100.00
69784;BME280;57054;51.978;4.498;2023-03-26T10:10:48;100269.81;;;8.04;100.00
69784;BME280;57054;51.978;4.498;2023-03-26T10:13:39;100270.03;;;7.98;100.00
69784;BME280;57054;51.978;4.498;2023-03-26T10:16:19;100268.53;;;7.93;100.00
69784;BME280;57054;51.978;4.498;2023-03-26T10:19:12;100273.00;;;7.89;100.00
69784;BME280;57054;51.978;4.498;2023-03-26T10:22:01;100278.38;;;7.86;100.00
69784;BME280;57054;51.978;4.498;2023-03-26T10:32:45;100289.75;;;7.83;100.00
69784;BME280;57054;51.978;4.498;2023-03-26T10:52:10;100303.38;;;7.68;100.00
69784;BME280;57054;51.978;4.498;2023-03-26T10:54:55;100313.75;;;7.69;100.00
69784;BME280;57054;51.978;4.498;2023-03-26T10:59:48;100328.69;;;7.64;100.00
69784;BME280;57054;51.978;4.498;2023-03-26T11:02:38;100328.06;;;7.58;100.00
69784;BME280;57054;51.978;4.498;2023-03-26T11:05:34;100318.56;;;7.57;100.00
69784;BME280;57054;51.978;4.498;2023-03-26T11:10:56;100333.59;;;7.48;100.00
69784;BME280;57054;51.978;4.498;2023-03-26T11:13:26;100338.03;;;7.46;100.00
69784;BME280;57054;51.978;4.498;2023-03-26T11:16:00;100335.50;;;7.43;100.00
69784;BME280;57054;51.978;4.498;2023-03-26T11:21:32;100347.84;;;7.38;100.00
69784;BME280;57054;51.978;4.498;2023-03-26T11:26:54;100350.69;;;7.32;100.00
69784;BME280;57054;51.978;4.498;2023-03-26T11:29:41;100369.75;;;7.33;100.00
69784;BME280;57054;51.978;4.498;2023-03-26T11:32:14;100365.53;;;7.30;100.00
69784;BME280;57054;51.978;4.498;2023-03-26T11:39:55;100369.25;;;7.23;100.00
69784;BME280;57054;51.978;4.498;2023-03-26T11:42:23;100367.66;;;7.19;100.00
69784;BME280;57054;51.978;4.498;2023-03-26T11:44:58;100369.34;;;7.20;100.00
69784;BME280;57054;51.978;4.498;2023-03-26T11:47:31;100378.88;;;7.21;100.00
69784;BME280;57054;51.978;4.498;2023-03-26T11:50:01;100379.69;;;7.21;100.00
69784;BME280;57054;51.978;4.498;2023-03-26T11:52:27;100390.88;;;7.25;100.00
69784;BME280;57054;51.978;4.498;2023-03-26T11:54:53;100396.97;;;7.24;100.00
69784;BME280;57054;51.978;4.498;2023-03-26T11:57:26;100404.78;;;7.24;100.00
69784;BME280;57054;51.978;4.498;2023-03-26T11:59:57;100399.53;;;7.25;100.00
69784;BME280;57054;51.978;4.498;2023-03-26T12:02:30;100403.06;;;7.24;100.00
69784;BME280;57054;51.978;4.498;2023-03-26T12:05:11;100417.81;;;7.24;100.00
69784;BME280;57054;51.978;4.498;2023-03-26T12:07:48;100420.38;;;7.25;100.00
69784;BME280;57054;51.978;4.498;2023-03-26T12:10:29;100418.63;;;7.26;100.00
69784;BME280;57054;51.978;4.498;2023-03-26T12:13:12;100421.28;;;7.24;
69784;BME280;57054;51.978;4.498;2023-03-26T12:15:44;100427.34;;;7.25;100.00
69784;BME280;57054;51.978;4.498;2023-03-26T12:18:23;100425.56;;;7.25;100.00
69784;BME280;57054;51.978;4.498;2023-03-26T12:21:04;100422.16;;;7.23;100.00
69784;BME280;57054;51.978;4.498;2023-03-26T12:23:43;100426.59;;;7.21;100.00
69784;BME280;57054;51.978;4.498;2023-03-26T12:26:15;100437.88;;;7.20;100.00
69784;BME280;57054;51.978;4.498;2023-03-26T12:28:46;100431.84;;;7.20;100.00
69784;BME280;57054;51.978;4.498;2023-03-26T12:31:13;100435.19;;;7.23;100.00
69784;BME280;57054;51.978;4.498;2023-03-26T12:33:43;100438.59;;;7.25;100.00
69784;BME280;57054;51.978;4.498;2023-03-26T12:36:22;100435.06;;;7.28;100.00
69784;BME280;57054;51.978;4.498;2023-03-26T12:38:50;100439.34;;;7.29;100.00
69784;BME280;57054;51.978;4.498;2023-03-26T12:41:18;100448.84;;;7.32;99.67
69784;BME280;57054;51.978;4.498;2023-03-26T12:48:48;100458.16;;;7.39;98.37
69784;BME280;57054;51.978;4.498;2023-03-26T12:54:16;100461.50;;;7.42;97.81
69784;BME280;57054;51.978;4.498;2023-03-26T13:04:58;100467.38;;;7.47;96.40
69784;BME280;57054;51.978;4.498;2023-03-26T13:07:38;100470.94;;;7.45;94.43
69784;BME280;57054;51.978;4.498;2023-03-26T13:13:32;100475.19;;;7.47;93.72
69784;BME280;57054;51.978;4.498;2023-03-26T13:15:43;100479.56;;;7.47;92.95
69784;BME280;57054;51.978;4.498;2023-03-26T13:18:28;100477.88;;;7.46;92.96
69784;BME280;57054;51.978;4.498;2023-03-26T13:21:32;100487.38;;;7.47;93.22
69784;BME280;57054;51.978;4.498;2023-03-26T13:29:55;100488.13;;;7.50;92.33
69784;BME280;57054;51.978;4.498;2023-03-26T13:43:40;100505.16;;;7.61;89.59
69784;BME280;57054;51.978;4.498;2023-03-26T13:51:29;100512.81;;;7.65;88.83
69784;BME280;57054;51.978;4.498;2023-03-26T13:54:20;100519.75;;;7.66;88.37
69784;BME280;57054;51.978;4.498;2023-03-26T13:57:00;100518.00;;;7.67;88.01
69784;BME280;57054;51.978;4.498;2023-03-26T13:59:54;100524.88;;;7.69;87.83
69784;BME280;57054;51.978;4.498;2023-03-26T14:02:45;100529.13;;;7.72;87.27
69784;BME280;57054;51.978;4.498;2023-03-26T14:05:20;100521.25;;;7.74;87.16
69784;BME280;57054;51.978;4.498;2023-03-26T14:07:50;100529.03;;;7.75;85.74
69784;BME280;57054;51.978;4.498;2023-03-26T14:10:24;100532.47;;;7.76;85.63
69784;BME280;57054;51.978;4.498;2023-03-26T14:13:26;100537.69;;;7.76;83.99
69784;BME280;57054;51.978;4.498;2023-03-26T14:16:00;100540.25;;;7.77;84.65
69784;BME280;57054;51.978;4.498;2023-03-26T14:18:45;100546.34;;;7.76;83.66
69784;BME280;57054;51.978;4.498;2023-03-26T14:29:35;100554.88;;;7.81;84.06
69784;BME280;57054;51.978;4.498;2023-03-26T14:40:29;100571.25;;;7.85;81.79
69784;BME280;57054;51.978;4.498;2023-03-26T14:43:13;100585.19;;;7.84;80.89
69784;BME280;57054;51.978;4.498;2023-03-26T14:51:16;100602.84;;;7.76;80.73
69784;BME280;57054;51.978;4.498;2023-03-26T14:53:51;100596.88;;;7.72;80.43
69784;BME280;57054;51.978;4.498;2023-03-26T15:18:32;100659.22;;;7.52;79.44
69784;BME280;57054;51.978;4.498;2023-03-26T15:21:28;100663.69;;;7.48;78.04
69784;BME280;57054;51.978;4.498;2023-03-26T15:24:15;100664.59;;;7.45;77.71
69784;BME280;57054;51.978;4.498;2023-03-26T15:43:18;100700.72;;;7.29;76.72
69784;BME280;57054;51.978;4.498;2023-03-26T15:45:51;100704.19;;;7.28;76.83
69784;BME280;57054;51.978;4.498;2023-03-26T15:48:34;100716.38;;;7.28;77.00
69784;BME280;57054;51.978;4.498;2023-03-26T16:05:00;100747.06;;;7.17;75.30
69784;BME280;57054;51.978;4.498;2023-03-26T16:07:35;100741.06;;;7.15;74.60
69784;BME280;57054;51.978;4.498;2023-03-26T16:10:28;100756.75;;;7.13;75.24
69784;BME280;57054;51.978;4.498;2023-03-26T16:15:54;100763.78;;;7.09;74.07
69784;BME280;57054;51.978;4.498;2023-03-26T16:21:34;100777.72;;;7.07;74.10
69784;BME280;57054;51.978;4.498;2023-03-26T16:29:18;100797.78;;;7.03;72.57
69784;BME280;57054;51.978;4.498;2023-03-26T16:32:15;100802.19;;;7.01;72.62
69784;BME280;57054;51.978;4.498;2023-03-26T16:37:42;100820.72;;;6.89;70.04
69784;BME280;57054;51.978;4.498;2023-03-26T16:50:41;100844.44;;;6.77;71.79
69784;BME280;57054;51.978;4.498;2023-03-26T16:53:32;100859.28;;;6.73;71.34
69784;BME280;57054;51.978;4.498;2023-03-26T16:56:32;100856.84;;;6.67;71.51
69784;BME280;57054;51.978;4.498;2023-03-26T16:59:10;100872.53;;;6.64;71.37
69784;BME280;57054;51.978;4.498;2023-03-26T17:01:58;100879.66;;;6.57;72.14
69784;BME280;57054;51.978;4.498;2023-03-26T17:04:30;100884.91;;;6.54;72.65
69784;BME280;57054;51.978;4.498;2023-03-26T17:12:25;100901.56;;;6.47;73.23
69784;BME280;57054;51.978;4.498;2023-03-26T17:15:21;100903.31;;;6.46;73.48
69784;BME280;57054;51.978;4.498;2023-03-26T17:20:31;100916.38;;;6.43;72.99
69784;BME280;57054;51.978;4.498;2023-03-26T17:23:07;100925.97;;;6.41;72.65
69784;BME280;57054;51.978;4.498;2023-03-26T17:25:44;100926.84;;;6.40;72.85
69784;BME280;57054;51.978;4.498;2023-03-26T17:28:45;100936.41;;;6.40;73.14
69784;BME280;57054;51.978;4.498;2023-03-26T17:31:21;100939.00;;;6.40;71.51
69784;BME280;57054;51.978;4.498;2023-03-26T17:33:51;100946.84;;;6.37;70.21
69784;BME280;57054;51.978;4.498;2023-03-26T17:36:39;100948.66;;;6.33;69.60
69784;BME280;57054;51.978;4.498;2023-03-26T17:39:18;100959.16;;;6.30;69.57
69784;BME280;57054;51.978;4.498;2023-03-26T17:41:53;100965.22;;;6.30;70.88
69784;BME280;57054;51.978;4.498;2023-03-26T17:44:55;100967.84;;;6.29;69.90
69784;BME280;57054;51.978;4.498;2023-03-26T17:47:30;100979.16;;;6.28;70.67
69784;BME280;57054;51.978;4.498;2023-03-26T17:53:04;100980.97;;;6.23;70.75
69784;BME280;57054;51.978;4.498;2023-03-26T17:55:37;100988.84;;;6.20;71.11
69784;BME280;57054;51.978;4.498;2023-03-26T17:58:24;101007.00;;;6.21;72.44
69784;BME280;57054;51.978;4.498;2023-03-26T18:01:01;101013.94;;;6.22;72.84
69784;BME280;57054;51.978;4.498;2023-03-26T18:03:33;101021.75;;;6.22;72.56
69784;BME280;57054;51.978;4.498;2023-03-26T18:06:09;101019.16;;;6.21;71.77
69784;BME280;57054;51.978;4.498;2023-03-26T18:14:17;101052.22;;;6.15;70.84
69784;BME280;57054;51.978;4.498;2023-03-26T18:16:48;101053.97;;;6.15;72.12
69784;BME280;57054;51.978;4.498;2023-03-26T18:19:16;101053.06;;;6.14;71.82
69784;BME280;57054;51.978;4.498;2023-03-26T18:24:29;101060.91;;;6.13;73.14
69784;BME280;57054;51.978;4.498;2023-03-26T18:27:14;101066.16;;;6.11;72.20
69784;BME280;57054;51.978;4.498;2023-03-26T18:29:56;101076.56;;;6.11;72.98
69784;BME280;57054;51.978;4.498;2023-03-26T18:32:27;101086.09;;;6.11;72.32
69784;BME280;57054;51.978;4.498;2023-03-26T18:35:00;101092.22;;;6.08;72.39
69784;BME280;57054;51.978;4.498;2023-03-26T18:37:26;101107.84;;;6.07;72.17
69784;BME280;57054;51.978;4.498;2023-03-26T18:39:56;101107.03;;;6.03;72.36